Time,TemperatureF,DewpointF,PressureIn,WindDirection,WindDirectionDegrees,WindSpeedMPH,WindSpeedGustMPH,Humidity,HourlyPrecipIn,Conditions,Clouds,dailyrainin,SoftwareType,DateUTC
2013-09-22 00:01:00,70.6,70.0,29.77,NE,55,3.0,6.0,98,0.03,,SKC,0.50,VWS V14.00,2013-09-22 05:01:00,
2013-09-22 00:06:00,70.5,69.9,29.77,NE,51,3.0,5.0,98,0.01,,SKC,0.00,VWS V14.00,2013-09-22 05:06:00,
2013-09-22 00:11:00,70.6,70.0,29.77,NE,51,2.0,5.0,98,0.01,,SKC,0.00,VWS V14.00,2013-09-22 05:11:00,
2013-09-22 00:16:00,70.6,70.0,29.77,NE,51,1.0,5.0,98,0.01,,SKC,0.00,VWS V14.00,2013-09-22 05:16:00,
2013-09-22 00:21:00,70.6,70.0,29.77,NE,51,0.0,5.0,98,0.02,,SKC,0.01,VWS V14.00,2013-09-22 05:21:00,
2013-09-22 00:26:00,70.6,70.0,29.77,NE,51,2.0,5.0,98,0.02,,SKC,0.01,VWS V14.00,2013-09-22 05:26:00,
2013-09-22 00:31:00,70.6,70.0,29.77,NE,50,2.0,5.0,98,0.02,,SKC,0.01,VWS V14.00,2013-09-22 05:31:00,
2013-09-22 00:36:00,70.7,70.1,29.77,NE,49,0.0,6.0,98,0.02,,SKC,0.01,VWS V14.00,2013-09-22 05:36:00,
2013-09-22 00:41:00,70.7,70.1,29.76,NE,44,1.0,6.0,98,0.02,,SKC,0.01,VWS V14.00,2013-09-22 05:41:00,
2013-09-22 00:46:00,70.7,70.1,29.76,NE,42,2.0,6.0,98,0.02,,SKC,0.01,VWS V14.00,2013-09-22 05:46:00,
2013-09-22 00:51:00,70.7,70.1,29.76,NE,40,3.0,6.0,98,0.02,,SKC,0.01,VWS V14.00,2013-09-22 05:51:00,
2013-09-22 00:56:00,70.8,70.2,29.76,NE,40,0.0,6.0,98,0.02,,SKC,0.01,VWS V14.00,2013-09-22 05:56:00,
2013-09-22 01:01:00,70.8,70.2,29.76,NE,41,0.0,6.0,98,0.03,,SKC,0.02,VWS V14.00,2013-09-22 06:01:00,
2013-09-22 01:06:00,70.8,70.2,29.76,NE,41,0.0,3.0,98,0.02,,SKC,0.02,VWS V14.00,2013-09-22 06:06:00,
2013-09-22 01:11:00,70.8,70.2,29.76,NE,42,0.0,6.0,98,0.02,,SKC,0.02,VWS V14.00,2013-09-22 06:11:00,
2013-09-22 01:16:00,70.6,70.0,29.76,NE,40,1.0,6.0,98,0.02,,SKC,0.02,VWS V14.00,2013-09-22 06:16:00,
2013-09-22 01:21:00,70.3,69.4,29.76,NE,50,2.0,8.0,97,0.02,,SKC,0.02,VWS V14.00,2013-09-22 06:21:00,
2013-09-22 01:26:00,70.1,69.2,29.76,NNE,19,2.0,8.0,97,0.02,,SKC,0.02,VWS V14.00,2013-09-22 06:26:00,
2013-09-22 01:31:00,69.8,68.9,29.76,NE,35,3.0,8.0,97,0.02,,SKC,0.02,VWS V14.00,2013-09-22 06:31:00,
2013-09-22 01:36:00,69.7,68.8,29.76,NNE,28,1.0,8.0,97,0.02,,SKC,0.02,VWS V14.00,2013-09-22 06:36:00,
2013-09-22 01:41:00,69.6,68.7,29.76,NNE,28,0.0,8.0,97,0.02,,SKC,0.02,VWS V14.00,2013-09-22 06:41:00,
2013-09-22 01:46:00,69.6,68.7,29.76,NNE,28,0.0,8.0,97,0.03,,SKC,0.03,VWS V14.00,2013-09-22 06:46:00,
2013-09-22 01:51:00,69.5,68.6,29.76,NNE,26,0.0,8.0,97,0.03,,SKC,0.03,VWS V14.00,2013-09-22 06:51:00,
2013-09-22 01:56:00,69.3,68.4,29.76,NNE,27,0.0,8.0,97,0.03,,SKC,0.03,VWS V14.00,2013-09-22 06:56:00,
2013-09-22 02:01:00,69.0,68.1,29.76,NNE,29,1.0,8.0,97,0.03,,SKC,0.03,VWS V14.00,2013-09-22 07:01:00,
2013-09-22 02:06:00,68.7,67.8,29.76,NNE,27,0.0,4.0,97,0.01,,SKC,0.03,VWS V14.00,2013-09-22 07:06:00,
2013-09-22 02:11:00,68.5,67.6,29.76,NNE,27,0.0,4.0,97,0.01,,SKC,0.03,VWS V14.00,2013-09-22 07:11:00,
2013-09-22 02:16:00,68.3,67.4,29.76,NNE,25,0.0,6.0,97,0.01,,SKC,0.03,VWS V14.00,2013-09-22 07:16:00,
2013-09-22 02:21:00,68.0,67.1,29.76,North,5,7.0,7.0,97,0.01,,SKC,0.03,VWS V14.00,2013-09-22 07:21:00,
2013-09-22 02:26:00,67.8,66.9,29.76,NNE,26,1.0,7.0,97,0.01,,SKC,0.03,VWS V14.00,2013-09-22 07:26:00,
2013-09-22 02:31:00,67.6,66.7,29.76,NNE,22,0.0,7.0,97,0.02,,SKC,0.04,VWS V14.00,2013-09-22 07:31:00,
2013-09-22 02:36:00,67.5,66.6,29.76,NNE,21,4.0,7.0,97,0.02,,SKC,0.04,VWS V14.00,2013-09-22 07:36:00,
2013-09-22 02:41:00,67.4,66.5,29.76,ENE,57,1.0,7.0,97,0.02,,SKC,0.04,VWS V14.00,2013-09-22 07:41:00,
2013-09-22 02:46:00,67.2,66.3,29.76,NNE,24,2.0,7.0,97,0.02,,SKC,0.04,VWS V14.00,2013-09-22 07:46:00,
2013-09-22 02:51:00,67.2,66.0,29.76,NE,38,4.0,7.0,96,0.02,,SKC,0.04,VWS V14.00,2013-09-22 07:51:00,
2013-09-22 02:56:00,67.2,66.0,29.75,NE,40,3.0,8.0,96,0.02,,SKC,0.04,VWS V14.00,2013-09-22 07:56:00,
2013-09-22 03:01:00,67.1,65.9,29.76,NNE,30,2.0,8.0,96,0.02,,SKC,0.04,VWS V14.00,2013-09-22 08:01:00,
2013-09-22 03:06:00,67.1,65.9,29.75,NNE,30,0.0,3.0,96,0.01,,SKC,0.04,VWS V14.00,2013-09-22 08:06:00,
2013-09-22 03:11:00,67.0,65.8,29.75,NE,36,0.0,8.0,96,0.01,,SKC,0.04,VWS V14.00,2013-09-22 08:11:00,
2013-09-22 03:16:00,66.9,65.7,29.75,NE,36,0.0,8.0,96,0.01,,SKC,0.04,VWS V14.00,2013-09-22 08:16:00,
2013-09-22 03:21:00,66.9,65.7,29.75,NNE,32,0.0,8.0,96,0.02,,SKC,0.05,VWS V14.00,2013-09-22 08:21:00,
2013-09-22 03:26:00,66.9,65.4,29.75,NNE,29,0.0,8.0,95,0.02,,SKC,0.05,VWS V14.00,2013-09-22 08:26:00,
2013-09-22 03:31:00,66.8,65.3,29.75,NNE,30,2.0,8.0,95,0.02,,SKC,0.05,VWS V14.00,2013-09-22 08:31:00,
2013-09-22 03:36:00,66.8,65.3,29.75,NNE,27,0.0,8.0,95,0.02,,SKC,0.05,VWS V14.00,2013-09-22 08:36:00,
2013-09-22 03:41:00,66.8,65.3,29.75,NNE,21,3.0,8.0,95,0.02,,SKC,0.05,VWS V14.00,2013-09-22 08:41:00,
2013-09-22 03:46:00,66.7,64.9,29.75,NNE,17,2.0,8.0,94,0.02,,SKC,0.05,VWS V14.00,2013-09-22 08:46:00,
2013-09-22 03:51:00,66.7,64.9,29.75,NNE,13,3.0,8.0,94,0.02,,SKC,0.05,VWS V14.00,2013-09-22 08:51:00,
2013-09-22 03:56:00,66.6,64.8,29.75,NNE,19,3.0,8.0,94,0.02,,SKC,0.05,VWS V14.00,2013-09-22 08:56:00,
2013-09-22 04:01:00,66.6,64.8,29.75,NNE,15,2.0,8.0,94,0.02,,SKC,0.05,VWS V14.00,2013-09-22 09:01:00,
2013-09-22 04:05:00,66.6,64.8,29.75,NNE,15,2.0,4.0,94,0.01,,SKC,0.05,VWS V14.00,2013-09-22 09:05:00,
2013-09-22 04:10:00,66.5,64.7,29.74,NNE,21,3.0,6.0,94,0.02,,SKC,0.06,VWS V14.00,2013-09-22 09:10:00,
2013-09-22 04:15:00,66.5,64.7,29.74,NE,39,1.0,8.0,94,0.02,,SKC,0.06,VWS V14.00,2013-09-22 09:15:00,
2013-09-22 04:20:00,66.4,64.6,29.74,NE,38,1.0,8.0,94,0.02,,SKC,0.06,VWS V14.00,2013-09-22 09:20:00,
2013-09-22 04:25:00,66.3,64.5,29.74,NE,37,2.0,8.0,94,0.02,,SKC,0.06,VWS V14.00,2013-09-22 09:25:00,
2013-09-22 04:30:00,66.3,64.5,29.74,NNE,32,3.0,8.0,94,0.02,,SKC,0.06,VWS V14.00,2013-09-22 09:30:00,
2013-09-22 04:35:00,66.2,64.4,29.74,NNE,26,1.0,8.0,94,0.02,,SKC,0.06,VWS V14.00,2013-09-22 09:35:00,
2013-09-22 04:40:00,66.1,64.3,29.74,NNE,20,2.0,8.0,94,0.02,,SKC,0.06,VWS V14.00,2013-09-22 09:40:00,
2013-09-22 04:45:00,66.0,64.2,29.74,NE,40,4.0,8.0,94,0.02,,SKC,0.06,VWS V14.00,2013-09-22 09:45:00,
2013-09-22 04:50:00,66.0,64.2,29.74,NNE,24,4.0,8.0,94,0.02,,SKC,0.06,VWS V14.00,2013-09-22 09:50:00,
2013-09-22 04:55:00,66.0,64.2,29.74,NNE,17,2.0,8.0,94,0.02,,SKC,0.06,VWS V14.00,2013-09-22 09:55:00,
2013-09-22 05:00:00,66.0,64.2,29.75,NNE,19,0.0,8.0,94,0.02,,SKC,0.06,VWS V14.00,2013-09-22 10:00:00,
2013-09-22 05:05:00,65.9,64.1,29.75,NNE,23,3.0,6.0,94,0.01,,SKC,0.06,VWS V14.00,2013-09-22 10:05:00,
2013-09-22 05:10:00,65.9,64.1,29.75,NNE,21,0.0,6.0,94,0.02,,SKC,0.07,VWS V14.00,2013-09-22 10:10:00,
2013-09-22 05:15:00,65.9,63.8,29.75,ENE,57,1.0,8.0,93,0.02,,SKC,0.07,VWS V14.00,2013-09-22 10:15:00,
2013-09-22 05:20:00,65.9,64.1,29.75,NNE,19,2.0,8.0,94,0.02,,SKC,0.07,VWS V14.00,2013-09-22 10:20:00,
2013-09-22 05:25:00,65.9,63.8,29.75,NNE,19,0.0,8.0,93,0.02,,SKC,0.07,VWS V14.00,2013-09-22 10:25:00,
2013-09-22 05:30:00,65.8,63.7,29.75,NNE,20,4.0,9.0,93,0.02,,SKC,0.07,VWS V14.00,2013-09-22 10:30:00,
2013-09-22 05:35:00,65.8,63.7,29.75,NE,34,3.0,9.0,93,0.02,,SKC,0.07,VWS V14.00,2013-09-22 10:35:00,
2013-09-22 05:40:00,65.8,63.7,29.75,NE,34,1.0,9.0,93,0.02,,SKC,0.07,VWS V14.00,2013-09-22 10:40:00,
2013-09-22 05:45:00,65.8,63.7,29.76,NE,34,5.0,9.0,93,0.02,,SKC,0.07,VWS V14.00,2013-09-22 10:45:00,
2013-09-22 05:50:00,65.8,63.7,29.76,NNE,32,3.0,9.0,93,0.02,,SKC,0.07,VWS V14.00,2013-09-22 10:50:00,
2013-09-22 05:55:00,65.8,63.7,29.76,North,5,3.0,9.0,93,0.02,,SKC,0.07,VWS V14.00,2013-09-22 10:55:00,
2013-09-22 06:00:00,65.8,63.7,29.76,NNE,31,0.0,9.0,93,0.03,,SKC,0.08,VWS V14.00,2013-09-22 11:00:00,
2013-09-22 06:05:00,65.8,63.7,29.76,NNE,29,2.0,5.0,93,0.02,,SKC,0.08,VWS V14.00,2013-09-22 11:05:00,
2013-09-22 06:10:00,65.8,63.7,29.76,NE,34,1.0,7.0,93,0.02,,SKC,0.08,VWS V14.00,2013-09-22 11:10:00,
2013-09-22 06:15:00,65.8,63.7,29.76,NNE,30,1.0,7.0,93,0.02,,SKC,0.08,VWS V14.00,2013-09-22 11:15:00,
2013-09-22 06:20:00,65.8,63.7,29.76,NNE,22,5.0,8.0,93,0.02,,SKC,0.08,VWS V14.00,2013-09-22 11:20:00,
2013-09-22 06:25:00,65.8,63.7,29.76,NNE,24,3.0,8.0,93,0.02,,SKC,0.08,VWS V14.00,2013-09-22 11:25:00,
2013-09-22 06:30:00,65.8,63.7,29.76,NNE,25,3.0,8.0,93,0.02,,SKC,0.08,VWS V14.00,2013-09-22 11:30:00,
2013-09-22 06:35:00,65.8,63.7,29.76,NNE,25,2.0,8.0,93,0.02,,SKC,0.08,VWS V14.00,2013-09-22 11:35:00,
2013-09-22 06:40:00,65.8,63.7,29.76,NNE,25,2.0,8.0,93,0.02,,SKC,0.08,VWS V14.00,2013-09-22 11:40:00,
2013-09-22 06:45:00,65.7,63.6,29.77,NNE,24,0.0,8.0,93,0.02,,SKC,0.08,VWS V14.00,2013-09-22 11:45:00,
2013-09-22 06:50:00,65.7,63.6,29.76,NNE,24,0.0,8.0,93,0.02,,SKC,0.08,VWS V14.00,2013-09-22 11:50:00,
2013-09-22 06:55:00,65.7,63.6,29.77,NNE,24,0.0,8.0,93,0.02,,SKC,0.08,VWS V14.00,2013-09-22 11:55:00,
2013-09-22 07:00:00,65.7,63.6,29.77,NNE,24,0.0,8.0,93,0.02,,SKC,0.08,VWS V14.00,2013-09-22 12:00:00,
2013-09-22 07:05:00,65.7,63.6,29.77,NNE,24,0.0,0.0,93,0.00,,SKC,0.08,VWS V14.00,2013-09-22 12:05:00,
2013-09-22 07:10:00,65.7,63.6,29.77,NNE,24,0.0,0.0,93,0.00,,SKC,0.08,VWS V14.00,2013-09-22 12:10:00,
2013-09-22 07:15:00,65.7,63.6,29.77,NNE,24,0.0,0.0,93,0.00,,SKC,0.08,VWS V14.00,2013-09-22 12:15:00,
2013-09-22 07:20:00,65.7,63.6,29.77,NNE,24,0.0,0.0,93,0.00,,SKC,0.08,VWS V14.00,2013-09-22 12:20:00,
2013-09-22 07:25:00,65.7,63.6,29.77,NNE,24,0.0,0.0,93,0.00,,SKC,0.08,VWS V14.00,2013-09-22 12:25:00,
2013-09-22 07:30:00,65.7,63.6,29.78,NNE,24,0.0,0.0,93,0.00,,SKC,0.08,VWS V14.00,2013-09-22 12:30:00,
2013-09-22 07:35:00,65.7,63.6,29.78,NNE,24,0.0,0.0,93,0.00,,SKC,0.08,VWS V14.00,2013-09-22 12:35:00,
2013-09-22 07:40:00,65.7,63.6,29.78,NNE,24,0.0,0.0,93,0.00,,SKC,0.08,VWS V14.00,2013-09-22 12:40:00,
2013-09-22 07:45:00,65.7,63.6,29.78,NNE,24,0.0,0.0,93,0.00,,SKC,0.08,VWS V14.00,2013-09-22 12:45:00,
2013-09-22 07:50:00,65.7,63.6,29.79,NNE,24,0.0,0.0,93,0.00,,SKC,0.08,VWS V14.00,2013-09-22 12:50:00,
2013-09-22 07:55:00,65.7,63.6,29.79,NNE,24,0.0,0.0,93,0.00,,SKC,0.08,VWS V14.00,2013-09-22 12:55:00,
2013-09-22 08:00:00,65.7,63.6,29.79,NNE,24,0.0,0.0,93,0.00,,SKC,0.08,VWS V14.00,2013-09-22 13:00:00,
2013-09-22 08:05:00,66.1,63.7,29.79,NNE,22,8.0,13.0,92,0.01,,SKC,0.09,VWS V14.00,2013-09-22 13:05:00,
2013-09-22 08:10:00,66.2,63.5,29.79,NE,48,2.0,13.0,91,0.01,,SKC,0.09,VWS V14.00,2013-09-22 13:10:00,
2013-09-22 08:15:00,66.4,63.7,29.79,NE,49,3.0,13.0,91,0.01,,SKC,0.09,VWS V14.00,2013-09-22 13:15:00,
2013-09-22 08:20:00,66.5,63.8,29.80,NNE,33,3.0,13.0,91,0.01,,SKC,0.09,VWS V14.00,2013-09-22 13:20:00,
2013-09-22 08:25:00,66.7,63.7,29.80,ENE,69,3.0,13.0,90,0.01,,SKC,0.09,VWS V14.00,2013-09-22 13:25:00,
2013-09-22 08:30:00,66.8,63.8,29.80,ENE,59,4.0,13.0,90,0.01,,SKC,0.09,VWS V14.00,2013-09-22 13:30:00,
2013-09-22 08:35:00,67.0,63.7,29.80,NE,41,4.0,14.0,89,0.01,,SKC,0.09,VWS V14.00,2013-09-22 13:35:00,
2013-09-22 08:40:00,67.2,63.8,29.80,ENE,60,5.0,14.0,89,0.01,,SKC,0.09,VWS V14.00,2013-09-22 13:40:00,
2013-09-22 08:45:00,67.3,63.6,29.80,NE,42,2.0,14.0,88,0.01,,SKC,0.09,VWS V14.00,2013-09-22 13:45:00,
2013-09-22 08:50:00,67.4,63.7,29.80,ENE,64,0.0,14.0,88,0.01,,SKC,0.09,VWS V14.00,2013-09-22 13:50:00,
2013-09-22 08:55:00,67.6,63.6,29.81,ENE,67,1.0,14.0,87,0.01,,SKC,0.09,VWS V14.00,2013-09-22 13:55:00,
2013-09-22 09:00:00,67.6,63.3,29.81,East,82,4.0,14.0,86,0.01,,SKC,0.09,VWS V14.00,2013-09-22 14:00:00,
2013-09-22 09:05:00,67.7,63.4,29.81,NE,38,1.0,7.0,86,0.01,,SKC,0.09,VWS V14.00,2013-09-22 14:05:00,
2013-09-22 09:10:00,67.8,63.5,29.82,ENE,67,2.0,10.0,86,0.02,,SKC,0.10,VWS V14.00,2013-09-22 14:10:00,
2013-09-22 09:15:00,68.0,63.7,29.82,ENE,63,4.0,10.0,86,0.02,,SKC,0.10,VWS V14.00,2013-09-22 14:15:00,
2013-09-22 09:20:00,68.1,63.4,29.82,East,97,2.0,10.0,85,0.02,,SKC,0.10,VWS V14.00,2013-09-22 14:20:00,
2013-09-22 09:25:00,68.3,63.6,29.82,ENE,64,4.0,11.0,85,0.02,,SKC,0.10,VWS V14.00,2013-09-22 14:25:00,
2013-09-22 09:30:00,68.4,63.7,29.82,NE,54,5.0,11.0,85,0.02,,SKC,0.10,VWS V14.00,2013-09-22 14:30:00,
2013-09-22 09:35:00,68.6,63.6,29.82,ENE,58,4.0,11.0,84,0.02,,SKC,0.10,VWS V14.00,2013-09-22 14:35:00,
2013-09-22 09:40:00,68.8,63.8,29.82,ENE,71,1.0,11.0,84,0.02,,SKC,0.10,VWS V14.00,2013-09-22 14:40:00,
2013-09-22 09:45:00,69.0,63.6,29.82,East,79,3.0,11.0,83,0.02,,SKC,0.10,VWS V14.00,2013-09-22 14:45:00,
2013-09-22 09:50:00,69.2,63.8,29.82,NNE,30,1.0,11.0,83,0.02,,SKC,0.10,VWS V14.00,2013-09-22 14:50:00,
2013-09-22 09:55:00,69.4,64.0,29.82,NE,45,11.0,11.0,83,0.02,,SKC,0.10,VWS V14.00,2013-09-22 14:55:00,
2013-09-22 10:00:00,69.5,63.4,29.82,NE,48,5.0,12.0,81,0.02,,SKC,0.10,VWS V14.00,2013-09-22 15:00:00,
2013-09-22 10:05:00,69.7,63.6,29.82,ENE,69,2.0,8.0,81,0.01,,SKC,0.10,VWS V14.00,2013-09-22 15:05:00,
2013-09-22 10:10:00,70.0,64.3,29.82,NE,47,7.0,13.0,82,0.02,,SKC,0.11,VWS V14.00,2013-09-22 15:10:00,
2013-09-22 10:15:00,70.4,63.9,29.82,East,80,5.0,13.0,80,0.02,,SKC,0.11,VWS V14.00,2013-09-22 15:15:00,
2013-09-22 10:20:00,70.7,64.2,29.82,NE,47,2.0,13.0,80,0.02,,SKC,0.11,VWS V14.00,2013-09-22 15:20:00,
2013-09-22 10:25:00,71.2,65.1,29.82,NE,42,7.0,13.0,81,0.02,,SKC,0.11,VWS V14.00,2013-09-22 15:25:00,
2013-09-22 10:30:00,71.9,65.4,29.82,East,92,4.0,13.0,80,0.02,,SKC,0.11,VWS V14.00,2013-09-22 15:30:00,
2013-09-22 10:35:00,72.4,65.2,29.82,ENE,59,3.0,13.0,78,0.02,,SKC,0.11,VWS V14.00,2013-09-22 15:35:00,
2013-09-22 10:40:00,72.9,65.3,29.83,ENE,62,3.0,13.0,77,0.02,,SKC,0.11,VWS V14.00,2013-09-22 15:40:00,
2013-09-22 10:45:00,73.2,64.8,29.82,ENE,67,5.0,13.0,75,0.02,,SKC,0.11,VWS V14.00,2013-09-22 15:45:00,
2013-09-22 10:50:00,73.5,65.5,29.82,ESE,110,1.0,13.0,76,0.02,,SKC,0.11,VWS V14.00,2013-09-22 15:50:00,
2013-09-22 10:55:00,73.8,66.2,29.82,NE,44,6.0,13.0,77,0.02,,SKC,0.11,VWS V14.00,2013-09-22 15:55:00,
2013-09-22 11:00:00,74.0,65.2,29.83,ENE,60,11.0,13.0,74,0.02,,SKC,0.11,VWS V14.00,2013-09-22 16:00:00,
2013-09-22 11:05:00,74.1,65.3,29.83,ENE,59,5.0,8.0,74,0.01,,SKC,0.11,VWS V14.00,2013-09-22 16:05:00,
2013-09-22 11:10:00,74.2,65.0,29.83,ENE,67,4.0,10.0,73,0.02,,SKC,0.12,VWS V14.00,2013-09-22 16:10:00,
2013-09-22 11:15:00,74.5,65.3,29.83,NE,46,7.0,10.0,73,0.02,,SKC,0.12,VWS V14.00,2013-09-22 16:15:00,
2013-09-22 11:20:00,74.4,65.6,29.83,ENE,65,5.0,11.0,74,0.02,,SKC,0.12,VWS V14.00,2013-09-22 16:20:00,
2013-09-22 11:25:00,74.7,65.5,29.83,ENE,76,3.0,11.0,73,0.02,,SKC,0.12,VWS V14.00,2013-09-22 16:25:00,
2013-09-22 11:30:00,74.9,64.9,29.83,NNE,28,5.0,11.0,71,0.02,,SKC,0.12,VWS V14.00,2013-09-22 16:30:00,
2013-09-22 11:35:00,75.1,65.5,29.82,NE,38,8.0,11.0,72,0.02,,SKC,0.12,VWS V14.00,2013-09-22 16:35:00,
2013-09-22 11:40:00,75.1,66.2,29.82,ENE,75,4.0,11.0,74,0.02,,SKC,0.12,VWS V14.00,2013-09-22 16:40:00,
2013-09-22 11:45:00,75.5,65.4,29.82,ESE,105,2.0,11.0,71,0.02,,SKC,0.12,VWS V14.00,2013-09-22 16:45:00,
2013-09-22 11:50:00,75.9,65.4,29.82,ENE,69,3.0,11.0,70,0.02,,SKC,0.12,VWS V14.00,2013-09-22 16:50:00,
2013-09-22 11:55:00,76.2,65.7,29.82,SE,129,0.0,11.0,70,0.02,,SKC,0.12,VWS V14.00,2013-09-22 16:55:00,
2013-09-22 12:00:00,76.6,66.5,29.82,ENE,58,5.0,11.0,71,0.02,,SKC,0.12,VWS V14.00,2013-09-22 17:00:00,
2013-09-22 12:05:00,76.9,66.4,29.82,NE,41,4.0,8.0,70,0.02,,SKC,0.13,VWS V14.00,2013-09-22 17:05:00,
2013-09-22 12:10:00,77.3,66.8,29.81,NE,49,8.0,14.0,70,0.02,,SKC,0.13,VWS V14.00,2013-09-22 17:10:00,
2013-09-22 12:15:00,77.0,65.2,29.81,ENE,65,8.0,14.0,67,0.02,,SKC,0.13,VWS V14.00,2013-09-22 17:15:00,
2013-09-22 12:20:00,77.2,65.0,29.81,NE,52,15.0,15.0,66,0.02,,SKC,0.13,VWS V14.00,2013-09-22 17:20:00,
2013-09-22 12:25:00,77.2,65.4,29.81,ENE,63,3.0,15.0,67,0.02,,SKC,0.13,VWS V14.00,2013-09-22 17:25:00,
2013-09-22 12:30:00,77.5,66.1,29.81,NNE,15,5.0,15.0,68,0.02,,SKC,0.13,VWS V14.00,2013-09-22 17:30:00,
2013-09-22 12:35:00,78.1,66.7,29.80,NNE,24,5.0,15.0,68,0.02,,SKC,0.13,VWS V14.00,2013-09-22 17:35:00,
2013-09-22 12:40:00,78.3,66.0,29.80,NE,46,3.0,15.0,66,0.02,,SKC,0.13,VWS V14.00,2013-09-22 17:40:00,
2013-09-22 12:45:00,78.3,65.6,29.80,ENE,63,2.0,15.0,65,0.02,,SKC,0.13,VWS V14.00,2013-09-22 17:45:00,
2013-09-22 12:50:00,78.3,66.0,29.80,NNE,17,3.0,15.0,66,0.02,,SKC,0.13,VWS V14.00,2013-09-22 17:50:00,
2013-09-22 12:55:00,78.6,65.9,29.79,NNE,32,4.0,15.0,65,0.02,,SKC,0.13,VWS V14.00,2013-09-22 17:55:00,
2013-09-22 13:00:00,78.9,65.2,29.79,NE,42,0.0,15.0,63,0.02,,SKC,0.13,VWS V14.00,2013-09-22 18:00:00,
2013-09-22 13:05:00,79.2,65.5,29.79,NNE,33,1.0,10.0,63,0.01,,SKC,0.13,VWS V14.00,2013-09-22 18:05:00,
2013-09-22 13:10:00,79.4,65.7,29.79,ENE,60,0.0,10.0,63,0.02,,SKC,0.14,VWS V14.00,2013-09-22 18:10:00,
2013-09-22 13:15:00,79.6,66.4,29.79,East,86,3.0,10.0,64,0.02,,SKC,0.14,VWS V14.00,2013-09-22 18:15:00,
2013-09-22 13:20:00,79.6,65.0,29.79,NE,34,3.0,11.0,61,0.02,,SKC,0.14,VWS V14.00,2013-09-22 18:20:00,
2013-09-22 13:25:00,79.4,64.8,29.79,NNE,28,4.0,11.0,61,0.02,,SKC,0.14,VWS V14.00,2013-09-22 18:25:00,
2013-09-22 13:30:00,79.5,65.8,29.79,NE,50,6.0,11.0,63,0.02,,SKC,0.14,VWS V14.00,2013-09-22 18:30:00,
2013-09-22 13:35:00,79.6,65.0,29.78,East,99,8.0,13.0,61,0.02,,SKC,0.14,VWS V14.00,2013-09-22 18:35:00,
2013-09-22 13:40:00,79.6,65.9,29.78,NE,41,4.0,13.0,63,0.02,,SKC,0.14,VWS V14.00,2013-09-22 18:40:00,
2013-09-22 13:45:00,79.8,65.2,29.78,NNE,24,5.0,13.0,61,0.02,,SKC,0.14,VWS V14.00,2013-09-22 18:45:00,
2013-09-22 13:50:00,79.8,64.7,29.78,NE,45,7.0,13.0,60,0.02,,SKC,0.14,VWS V14.00,2013-09-22 18:50:00,
2013-09-22 13:55:00,80.0,65.8,29.77,East,92,4.0,13.0,62,0.02,,SKC,0.14,VWS V14.00,2013-09-22 18:55:00,
2013-09-22 14:00:00,80.5,66.8,29.78,East,80,4.0,13.0,63,0.02,,SKC,0.14,VWS V14.00,2013-09-22 19:00:00,
2013-09-22 14:05:00,80.9,66.2,29.77,NE,48,10.0,10.0,61,0.02,,SKC,0.15,VWS V14.00,2013-09-22 19:05:00,
2013-09-22 14:10:00,80.9,66.2,29.77,NE,34,1.0,11.0,61,0.02,,SKC,0.15,VWS V14.00,2013-09-22 19:10:00,
2013-09-22 14:15:00,81.0,65.8,29.76,NE,46,5.0,11.0,60,0.02,,SKC,0.15,VWS V14.00,2013-09-22 19:15:00,
2013-09-22 14:20:00,80.9,66.2,29.76,North,9,8.0,14.0,61,0.02,,SKC,0.15,VWS V14.00,2013-09-22 19:20:00,
2013-09-22 14:25:00,80.5,65.3,29.76,NE,38,3.0,14.0,60,0.02,,SKC,0.15,VWS V14.00,2013-09-22 19:25:00,
2013-09-22 14:31:00,80.5,65.8,29.76,NNW,345,7.0,14.0,61,0.02,,SKC,0.15,VWS V14.00,2013-09-22 19:31:00,
2013-09-22 14:36:00,80.4,65.3,29.76,ENE,64,1.0,14.0,60,0.02,,SKC,0.15,VWS V14.00,2013-09-22 19:36:00,
2013-09-22 14:41:00,80.5,65.8,29.75,NE,53,10.0,14.0,61,0.02,,SKC,0.15,VWS V14.00,2013-09-22 19:41:00,
2013-09-22 14:46:00,80.6,64.5,29.75,NE,56,6.0,14.0,58,0.02,,SKC,0.15,VWS V14.00,2013-09-22 19:46:00,
2013-09-22 14:51:00,80.6,65.4,29.75,North,349,9.0,14.0,60,0.02,,SKC,0.15,VWS V14.00,2013-09-22 19:51:00,
2013-09-22 14:56:00,80.7,64.6,29.75,NNE,27,5.0,14.0,58,0.02,,SKC,0.15,VWS V14.00,2013-09-22 19:56:00,
2013-09-22 15:01:00,80.7,65.1,29.75,NE,38,4.0,14.0,59,0.02,,SKC,0.15,VWS V14.00,2013-09-22 20:01:00,
2013-09-22 15:06:00,80.8,64.7,29.75,North,355,7.0,12.0,58,0.01,,SKC,0.16,VWS V14.00,2013-09-22 20:06:00,
2013-09-22 15:11:00,80.6,65.0,29.75,NNE,17,4.0,12.0,59,0.01,,SKC,0.16,VWS V14.00,2013-09-22 20:11:00,
2013-09-22 15:16:00,80.6,64.0,29.75,East,80,3.0,12.0,57,0.01,,SKC,0.16,VWS V14.00,2013-09-22 20:16:00,
2013-09-22 15:20:00,80.7,64.1,29.75,ENE,63,2.0,12.0,57,0.01,,SKC,0.16,VWS V14.00,2013-09-22 20:20:00,
2013-09-22 15:25:00,80.9,63.8,29.75,ENE,73,3.0,12.0,56,0.01,,SKC,0.16,VWS V14.00,2013-09-22 20:25:00,
2013-09-22 15:30:00,80.9,64.2,29.75,NE,54,5.0,12.0,57,0.01,,SKC,0.16,VWS V14.00,2013-09-22 20:30:00,
2013-09-22 15:35:00,81.2,63.5,29.75,ENE,59,3.0,12.0,55,0.01,,SKC,0.16,VWS V14.00,2013-09-22 20:35:00,
2013-09-22 15:40:00,81.3,64.1,29.75,ENE,75,2.0,12.0,56,0.01,,SKC,0.16,VWS V14.00,2013-09-22 20:40:00,
2013-09-22 15:45:00,81.4,63.2,29.75,NE,40,11.0,12.0,54,0.01,,SKC,0.16,VWS V14.00,2013-09-22 20:45:00,
2013-09-22 15:50:00,81.4,61.0,29.75,NE,45,5.0,12.0,50,0.01,,SKC,0.16,VWS V14.00,2013-09-22 20:50:00,
2013-09-22 15:55:00,81.5,59.9,29.75,ENE,75,5.0,12.0,48,0.01,,SKC,0.16,VWS V14.00,2013-09-22 20:55:00,
2013-09-22 16:00:00,81.6,61.7,29.75,ENE,78,4.0,12.0,51,0.01,,SKC,0.16,VWS V14.00,2013-09-22 21:00:00,
2013-09-22 16:05:00,81.7,61.8,29.75,NE,44,5.0,12.0,51,0.01,,SKC,0.16,VWS V14.00,2013-09-22 21:05:00,
2013-09-22 16:10:00,81.6,61.2,29.75,ENE,75,2.0,12.0,50,0.02,,SKC,0.17,VWS V14.00,2013-09-22 21:10:00,
2013-09-22 16:15:00,81.5,61.7,29.74,NE,40,8.0,12.0,51,0.02,,SKC,0.17,VWS V14.00,2013-09-22 21:15:00,
2013-09-22 16:20:00,81.6,60.6,29.75,ENE,57,7.0,12.0,49,0.02,,SKC,0.17,VWS V14.00,2013-09-22 21:20:00,
2013-09-22 16:25:00,81.6,60.6,29.75,ENE,60,2.0,12.0,49,0.02,,SKC,0.17,VWS V14.00,2013-09-22 21:25:00,
2013-09-22 16:30:00,81.8,61.4,29.74,East,91,1.0,12.0,50,0.02,,SKC,0.17,VWS V14.00,2013-09-22 21:30:00,
2013-09-22 16:35:00,81.8,61.4,29.75,NE,52,5.0,12.0,50,0.02,,SKC,0.17,VWS V14.00,2013-09-22 21:35:00,
2013-09-22 16:40:00,81.6,60.0,29.75,ENE,73,1.0,12.0,48,0.02,,SKC,0.17,VWS V14.00,2013-09-22 21:40:00,
2013-09-22 16:45:00,81.3,59.8,29.74,ENE,57,4.0,12.0,48,0.02,,SKC,0.17,VWS V14.00,2013-09-22 21:45:00,
2013-09-22 16:50:00,80.9,60.5,29.75,NNE,17,5.0,12.0,50,0.02,,SKC,0.17,VWS V14.00,2013-09-22 21:50:00,
2013-09-22 16:55:00,80.6,60.3,29.74,NE,54,6.0,12.0,50,0.02,,SKC,0.17,VWS V14.00,2013-09-22 21:55:00,
2013-09-22 17:00:00,80.3,60.5,29.74,NE,46,5.0,12.0,51,0.02,,SKC,0.17,VWS V14.00,2013-09-22 22:00:00,
2013-09-22 17:05:00,80.3,61.6,29.75,NE,41,7.0,7.0,53,0.01,,SKC,0.17,VWS V14.00,2013-09-22 22:05:00,
2013-09-22 17:10:00,80.2,60.5,29.75,NE,46,5.0,9.0,51,0.01,,SKC,0.17,VWS V14.00,2013-09-22 22:10:00,
2013-09-22 17:15:00,80.1,60.4,29.75,NE,46,4.0,10.0,51,0.01,,SKC,0.17,VWS V14.00,2013-09-22 22:15:00,
2013-09-22 17:20:00,80.1,60.9,29.75,NE,44,5.0,10.0,52,0.01,,SKC,0.17,VWS V14.00,2013-09-22 22:20:00,
2013-09-22 17:25:00,80.1,59.8,29.75,NE,44,1.0,10.0,50,0.01,,SKC,0.17,VWS V14.00,2013-09-22 22:25:00,
2013-09-22 17:30:00,80.1,60.9,29.75,NE,47,2.0,10.0,52,0.01,,SKC,0.17,VWS V14.00,2013-09-22 22:30:00,
2013-09-22 17:35:00,80.2,61.5,29.75,ENE,60,5.0,10.0,53,0.02,,SKC,0.18,VWS V14.00,2013-09-22 22:35:00,
2013-09-22 17:40:00,80.1,60.4,29.75,NE,39,0.0,10.0,51,0.02,,SKC,0.18,VWS V14.00,2013-09-22 22:40:00,
2013-09-22 17:45:00,79.7,60.0,29.76,NE,52,4.0,10.0,51,0.02,,SKC,0.18,VWS V14.00,2013-09-22 22:45:00,
2013-09-22 17:50:00,79.3,61.2,29.76,NE,52,0.0,10.0,54,0.02,,SKC,0.18,VWS V14.00,2013-09-22 22:50:00,
2013-09-22 17:55:00,78.9,61.4,29.76,NE,52,2.0,10.0,55,0.02,,SKC,0.18,VWS V14.00,2013-09-22 22:55:00,
2013-09-22 18:00:00,78.5,61.0,29.76,NE,53,1.0,10.0,55,0.02,,SKC,0.18,VWS V14.00,2013-09-22 23:00:00,
2013-09-22 18:05:00,78.2,60.2,29.76,NE,35,2.0,6.0,54,0.01,,SKC,0.18,VWS V14.00,2013-09-22 23:05:00,
2013-09-22 18:10:00,78.0,61.0,29.76,NE,38,0.0,6.0,56,0.01,,SKC,0.18,VWS V14.00,2013-09-22 23:10:00,
2013-09-22 18:15:00,77.9,61.0,29.76,NE,40,0.0,6.0,56,0.01,,SKC,0.18,VWS V14.00,2013-09-22 23:15:00,
2013-09-22 18:20:00,77.8,61.4,29.76,NE,40,2.0,6.0,57,0.01,,SKC,0.18,VWS V14.00,2013-09-22 23:20:00,
2013-09-22 18:25:00,77.8,61.4,29.76,NE,40,2.0,6.0,57,0.01,,SKC,0.18,VWS V14.00,2013-09-22 23:25:00,
2013-09-22 18:30:00,77.8,61.4,29.76,NNE,29,2.0,6.0,57,0.01,,SKC,0.18,VWS V14.00,2013-09-22 23:30:00,
2013-09-22 18:35:00,77.7,62.2,29.76,NNE,29,0.0,6.0,59,0.01,,SKC,0.18,VWS V14.00,2013-09-22 23:35:00,
2013-09-22 18:40:00,77.5,62.1,29.76,NNE,29,2.0,6.0,59,0.01,,SKC,0.18,VWS V14.00,2013-09-22 23:40:00,
2013-09-22 18:45:00,77.4,62.4,29.76,NNE,29,0.0,6.0,60,0.01,,SKC,0.18,VWS V14.00,2013-09-22 23:45:00,
2013-09-22 18:50:00,77.2,62.2,29.76,NNE,29,0.0,6.0,60,0.01,,SKC,0.18,VWS V14.00,2013-09-22 23:50:00,
2013-09-22 18:55:00,77.1,62.6,29.76,NNE,29,0.0,6.0,61,0.01,,SKC,0.18,VWS V14.00,2013-09-22 23:55:00,
2013-09-22 19:00:00,76.9,62.4,29.76,NNE,29,0.0,6.0,61,0.01,,SKC,0.18,VWS V14.00,2013-09-23 00:00:00,
2013-09-22 19:05:00,76.7,62.7,29.76,NNE,29,1.0,2.0,62,0.01,,SKC,0.19,VWS V14.00,2013-09-23 00:05:00,
2013-09-22 19:10:00,76.5,62.5,29.76,NNE,29,0.0,4.0,62,0.01,,SKC,0.19,VWS V14.00,2013-09-23 00:10:00,
2013-09-22 19:15:00,76.3,61.9,29.76,NNE,26,4.0,6.0,61,0.01,,SKC,0.19,VWS V14.00,2013-09-23 00:15:00,
2013-09-22 19:20:00,76.1,62.2,29.76,ENE,57,0.0,6.0,62,0.01,,SKC,0.19,VWS V14.00,2013-09-23 00:20:00,
2013-09-22 19:25:00,75.9,62.0,29.76,NE,47,2.0,7.0,62,0.01,,SKC,0.19,VWS V14.00,2013-09-23 00:25:00,
2013-09-22 19:30:00,75.8,62.3,29.76,NE,41,2.0,7.0,63,0.01,,SKC,0.19,VWS V14.00,2013-09-23 00:30:00,
2013-09-22 19:35:00,75.6,62.1,29.76,NE,41,0.0,7.0,63,0.01,,SKC,0.19,VWS V14.00,2013-09-23 00:35:00,
2013-09-22 19:40:00,75.4,61.9,29.76,NE,41,0.0,7.0,63,0.01,,SKC,0.19,VWS V14.00,2013-09-23 00:40:00,
2013-09-22 19:45:00,75.2,62.2,29.76,NE,41,1.0,7.0,64,0.01,,SKC,0.19,VWS V14.00,2013-09-23 00:45:00,
2013-09-22 19:50:00,75.0,62.0,29.76,NE,40,2.0,8.0,64,0.01,,SKC,0.19,VWS V14.00,2013-09-23 00:50:00,
2013-09-22 19:55:00,74.8,61.4,29.76,NE,40,3.0,8.0,63,0.01,,SKC,0.19,VWS V14.00,2013-09-23 00:55:00,
2013-09-22 20:00:00,74.5,61.1,29.76,NE,45,2.0,8.0,63,0.01,,SKC,0.19,VWS V14.00,2013-09-23 01:00:00,
2013-09-22 20:05:00,74.2,61.2,29.76,NE,49,4.0,9.0,64,0.01,,SKC,0.19,VWS V14.00,2013-09-23 01:05:00,
2013-09-22 20:10:00,74.0,61.1,29.76,NE,41,2.0,9.0,64,0.01,,SKC,0.19,VWS V14.00,2013-09-23 01:10:00,
2013-09-22 20:15:00,73.7,61.2,29.76,NE,42,0.0,9.0,65,0.01,,SKC,0.19,VWS V14.00,2013-09-23 01:15:00,
2013-09-22 20:20:00,73.5,61.5,29.76,NE,36,4.0,9.0,66,0.01,,SKC,0.19,VWS V14.00,2013-09-23 01:20:00,
2013-09-22 20:25:00,73.1,61.1,29.76,NE,41,3.0,11.0,66,0.01,,SKC,0.19,VWS V14.00,2013-09-23 01:25:00,
2013-09-22 20:30:00,72.9,61.3,29.76,NE,49,2.0,11.0,67,0.01,,SKC,0.19,VWS V14.00,2013-09-23 01:30:00,
2013-09-22 20:35:00,72.7,61.5,29.76,NE,46,2.0,11.0,68,0.01,,SKC,0.19,VWS V14.00,2013-09-23 01:35:00,
2013-09-22 20:40:00,72.5,61.8,29.76,NE,49,3.0,11.0,69,0.01,,SKC,0.19,VWS V14.00,2013-09-23 01:40:00,
2013-09-22 20:45:00,72.3,62.0,29.77,NE,46,5.0,11.0,70,0.01,,SKC,0.19,VWS V14.00,2013-09-23 01:45:00,
2013-09-22 20:50:00,72.1,61.8,29.77,NNE,33,0.0,11.0,70,0.01,,SKC,0.19,VWS V14.00,2013-09-23 01:50:00,
2013-09-22 20:55:00,72.0,62.1,29.77,NNE,33,2.0,11.0,71,0.01,,SKC,0.19,VWS V14.00,2013-09-23 01:55:00,
2013-09-22 21:00:00,71.9,62.0,29.78,NNE,33,0.0,11.0,71,0.01,,SKC,0.19,VWS V14.00,2013-09-23 02:00:00,
2013-09-22 21:05:00,71.7,62.2,29.78,NNE,33,2.0,3.0,72,0.00,,SKC,0.19,VWS V14.00,2013-09-23 02:05:00,
2013-09-22 21:10:00,71.5,62.4,29.78,NE,34,3.0,4.0,73,0.01,,SKC,0.20,VWS V14.00,2013-09-23 02:10:00,
2013-09-22 21:15:00,71.3,62.2,29.78,NE,43,2.0,6.0,73,0.01,,SKC,0.20,VWS V14.00,2013-09-23 02:15:00,
2013-09-22 21:20:00,71.1,62.0,29.78,NE,43,0.0,6.0,73,0.01,,SKC,0.20,VWS V14.00,2013-09-23 02:20:00,
2013-09-22 21:25:00,70.7,62.0,29.78,NE,43,2.0,6.0,74,0.01,,SKC,0.20,VWS V14.00,2013-09-23 02:25:00,
2013-09-22 21:30:00,70.4,61.7,29.78,NE,42,3.0,6.0,74,0.01,,SKC,0.20,VWS V14.00,2013-09-23 02:30:00,
2013-09-22 21:35:00,70.2,61.9,29.78,NE,42,1.0,6.0,75,0.01,,SKC,0.20,VWS V14.00,2013-09-23 02:35:00,
2013-09-22 21:40:00,70.0,62.1,29.78,NE,42,1.0,6.0,76,0.01,,SKC,0.20,VWS V14.00,2013-09-23 02:40:00,
2013-09-22 21:45:00,69.8,61.9,29.78,NE,42,1.0,6.0,76,0.01,,SKC,0.20,VWS V14.00,2013-09-23 02:45:00,
2013-09-22 21:50:00,69.6,62.1,29.78,NE,42,0.0,6.0,77,0.01,,SKC,0.20,VWS V14.00,2013-09-23 02:50:00,
2013-09-22 21:55:00,69.4,61.9,29.78,NE,42,5.0,6.0,77,0.01,,SKC,0.20,VWS V14.00,2013-09-23 02:55:00,
2013-09-22 22:00:00,69.2,62.1,29.78,NE,42,0.0,6.0,78,0.01,,SKC,0.20,VWS V14.00,2013-09-23 03:00:00,
2013-09-22 22:05:00,69.1,62.0,29.79,NE,42,1.0,4.0,78,0.01,,SKC,0.20,VWS V14.00,2013-09-23 03:05:00,
2013-09-22 22:10:00,68.9,61.8,29.78,NE,42,0.0,4.0,78,0.01,,SKC,0.20,VWS V14.00,2013-09-23 03:10:00,
2013-09-22 22:15:00,68.8,62.0,29.78,NE,42,0.0,4.0,79,0.01,,SKC,0.20,VWS V14.00,2013-09-23 03:15:00,
2013-09-22 22:20:00,68.6,61.8,29.79,NE,42,0.0,4.0,79,0.01,,SKC,0.20,VWS V14.00,2013-09-23 03:20:00,
2013-09-22 22:25:00,68.5,62.1,29.79,NE,42,0.0,4.0,80,0.01,,SKC,0.20,VWS V14.00,2013-09-23 03:25:00,
2013-09-22 22:30:00,68.3,61.9,29.79,NE,42,0.0,4.0,80,0.01,,SKC,0.20,VWS V14.00,2013-09-23 03:30:00,
2013-09-22 22:35:00,68.3,61.9,29.78,NE,42,0.0,4.0,80,0.01,,SKC,0.20,VWS V14.00,2013-09-23 03:35:00,
2013-09-22 22:40:00,68.2,61.8,29.78,NE,42,0.0,4.0,80,0.01,,SKC,0.20,VWS V14.00,2013-09-23 03:40:00,
2013-09-22 22:45:00,68.1,62.1,29.79,NE,42,0.0,4.0,81,0.01,,SKC,0.20,VWS V14.00,2013-09-23 03:45:00,
2013-09-22 22:50:00,68.1,62.1,29.79,NE,42,0.0,4.0,81,0.01,,SKC,0.20,VWS V14.00,2013-09-23 03:50:00,
2013-09-22 22:55:00,68.0,62.0,29.79,NE,42,0.0,4.0,81,0.01,,SKC,0.20,VWS V14.00,2013-09-23 03:55:00,
2013-09-22 23:00:00,67.9,61.9,29.79,NE,42,0.0,4.0,81,0.01,,SKC,0.20,VWS V14.00,2013-09-23 04:00:00,
2013-09-22 23:01:00,67.9,61.9,29.79,NE,42,0.0,4.0,81,0.01,,SKC,0.20,VWS V14.00,2013-09-23 04:01:00,
2013-09-22 23:06:00,67.8,62.1,29.79,NE,42,0.0,0.0,82,0.00,,SKC,0.20,VWS V14.00,2013-09-23 04:06:00,
2013-09-22 23:11:00,67.7,62.0,29.79,NE,42,0.0,0.0,82,0.00,,SKC,0.20,VWS V14.00,2013-09-23 04:11:00,
2013-09-22 23:16:00,67.6,61.9,29.79,NE,42,0.0,0.0,82,0.00,,SKC,0.20,VWS V14.00,2013-09-23 04:16:00,
2013-09-22 23:21:00,67.6,62.3,29.79,NE,42,0.0,0.0,83,0.01,,SKC,0.21,VWS V14.00,2013-09-23 04:21:00,
2013-09-22 23:26:00,67.4,62.1,29.79,NE,42,0.0,0.0,83,0.01,,SKC,0.21,VWS V14.00,2013-09-23 04:26:00,
2013-09-22 23:31:00,67.3,62.0,29.79,NE,42,0.0,0.0,83,0.01,,SKC,0.21,VWS V14.00,2013-09-23 04:31:00,
2013-09-22 23:36:00,67.3,62.0,29.79,NE,42,0.0,0.0,83,0.01,,SKC,0.21,VWS V14.00,2013-09-23 04:36:00,
2013-09-22 23:41:00,67.2,61.9,29.79,NE,42,0.0,2.0,83,0.01,,SKC,0.21,VWS V14.00,2013-09-23 04:41:00,
2013-09-22 23:46:00,67.2,61.9,29.80,NE,42,0.0,4.0,83,0.01,,SKC,0.21,VWS V14.00,2013-09-23 04:46:00,
2013-09-22 23:51:00,67.1,61.8,29.79,NE,42,0.0,4.0,83,0.01,,SKC,0.21,VWS V14.00,2013-09-23 04:51:00,
2013-09-22 23:56:00,67.0,61.7,29.79,NE,42,0.0,4.0,83,0.01,,SKC,0.21,VWS V14.00,2013-09-23 04:56:00,